sensor_id;sensor_type;location;lat;lon;timestamp;pressure;altitude;pressure_sealevel;temperature;humidity
29907;BME280;16776;50.958;10.994;2023-05-10T00:01:13;97724.59;;;13.89;75.72
29907;BME280;16776;50.958;10.994;2023-05-10T00:03:39;97720.34;;;13.88;75.75
29907;BME280;16776;50.958;10.994;2023-05-10T00:06:06;97714.34;;;13.87;75.76
29907;BME280;16776;50.958;10.994;2023-05-10T00:08:33;97715.34;;;13.85;75.88
29907;BME280;16776;50.958;10.994;2023-05-10T00:11:01;97708.31;;;13.87;76.00
29907;BME280;16776;50.958;10.994;2023-05-10T00:13:27;97712.75;;;13.85;76.67
29907;BME280;16776;50.958;10.994;2023-05-10T00:15:57;97706.66;;;13.86;76.20
29907;BME280;16776;50.958;10.994;2023-05-10T00:18:23;97712.75;;;13.85;76.29
29907;BME280;16776;50.958;10.994;2023-05-10T00:20:50;97705.88;;;13.83;76.32
29907;BME280;16776;50.958;10.994;2023-05-10T00:23:17;97692.22;;;13.81;76.78
29907;BME280;16776;50.958;10.994;2023-05-10T00:25:44;97702.56;;;13.81;76.57
29907;BME280;16776;50.958;10.994;2023-05-10T00:28:13;97704.22;;;13.82;76.44
29907;BME280;16776;50.958;10.994;2023-05-10T00:30:40;97695.88;;;13.77;76.89
29907;BME280;16776;50.958;10.994;2023-05-10T00:33:06;97686.44;;;13.76;76.65
29907;BME280;16776;50.958;10.994;2023-05-10T00:35:33;97693.28;;;13.77;76.69
29907;BME280;16776;50.958;10.994;2023-05-10T00:37:59;97693.38;;;13.76;76.74
29907;BME280;16776;50.958;10.994;2023-05-10T00:40:26;97692.56;;;13.75;76.80
29907;BME280;16776;50.958;10.994;2023-05-10T00:42:53;97697.72;;;13.75;77.14
29907;BME280;16776;50.958;10.994;2023-05-10T00:45:22;97695.81;;;13.79;76.96
29907;BME280;16776;50.958;10.994;2023-05-10T00:47:49;97694.31;;;13.75;77.01
29907;BME280;16776;50.958;10.994;2023-05-10T00:50:17;97682.84;;;13.63;77.23
29907;BME280;16776;50.958;10.994;2023-05-10T00:52:44;97681.25;;;13.76;77.12
29907;BME280;16776;50.958;10.994;2023-05-10T00:55:11;97684.78;;;13.75;77.20
29907;BME280;16776;50.958;10.994;2023-05-10T00:57:38;97689.13;;;13.75;77.32
29907;BME280;16776;50.958;10.994;2023-05-10T01:00:06;97681.25;;;13.76;77.12
29907;BME280;16776;50.958;10.994;2023-05-10T01:02:34;97668.78;;;13.69;77.20
29907;BME280;16776;50.958;10.994;2023-05-10T01:05:02;97686.38;;;13.78;77.22
29907;BME280;16776;50.958;10.994;2023-05-10T01:07:30;97681.94;;;13.80;77.33
29907;BME280;16776;50.958;10.994;2023-05-10T01:09:57;97673.50;;;13.76;77.50
29907;BME280;16776;50.958;10.994;2023-05-10T01:12:24;97681.09;;;13.79;77.17
29907;BME280;16776;50.958;10.994;2023-05-10T01:14:51;97680.19;;;13.80;77.35
29907;BME280;16776;50.958;10.994;2023-05-10T01:17:18;97675.03;;;13.80;77.57
29907;BME280;16776;50.958;10.994;2023-05-10T01:19:46;97686.94;;;13.83;77.62
29907;BME280;16776;50.958;10.994;2023-05-10T01:22:29;97684.84;;;13.90;77.03
29907;BME280;16776;50.958;10.994;2023-05-10T01:25:19;97682.25;;;13.90;77.17
29907;BME280;16776;50.958;10.994;2023-05-10T01:28:18;97677.84;;;13.92;76.71
29907;BME280;16776;50.958;10.994;2023-05-10T01:31:08;97682.09;;;13.93;77.03
29907;BME280;16776;50.958;10.994;2023-05-10T01:33:47;97679.84;;;13.87;77.69
29907;BME280;16776;50.958;10.994;2023-05-10T01:36:20;97685.03;;;13.87;77.34
29907;BME280;16776;50.958;10.994;2023-05-10T01:38:55;97679.09;;;13.85;77.79
29907;BME280;16776;50.958;10.994;2023-05-10T01:41:28;97680.00;;;13.83;77.88
29907;BME280;16776;50.958;10.994;2023-05-10T01:44:06;97683.28;;;13.87;77.38
29907;BME280;16776;50.958;10.994;2023-05-10T01:46:37;97681.03;;;13.81;77.79
29907;BME280;16776;50.958;10.994;2023-05-10T01:49:08;97684.28;;;13.85;77.65
29907;BME280;16776;50.958;10.994;2023-05-10T01:51:39;97675.75;;;13.82;77.77
29907;BME280;16776;50.958;10.994;2023-05-10T01:54:08;97681.19;;;13.78;78.05
29907;BME280;16776;50.958;10.994;2023-05-10T01:56:37;97683.69;;;13.79;77.95
29907;BME280;16776;50.958;10.994;2023-05-10T01:59:11;97679.63;;;13.75;78.10
29907;BME280;16776;50.958;10.994;2023-05-10T02:01:39;97680.28;;;13.79;77.08
29907;BME280;16776;50.958;10.994;2023-05-10T02:04:08;97683.34;;;13.70;78.34
29907;BME280;16776;50.958;10.994;2023-05-10T02:06:38;97682.69;;;13.66;78.33
29907;BME280;16776;50.958;10.994;2023-05-10T02:09:08;97681.94;;;13.64;78.54
29907;BME280;16776;50.958;10.994;2023-05-10T02:11:37;97679.41;;;13.63;78.46
29907;BME280;16776;50.958;10.994;2023-05-10T02:14:05;97678.63;;;13.62;78.62
29907;BME280;16776;50.958;10.994;2023-05-10T02:16:35;97680.25;;;13.63;78.72
29907;BME280;16776;50.958;10.994;2023-05-10T02:19:02;97684.69;;;13.61;78.56
29907;BME280;16776;50.958;10.994;2023-05-10T02:21:31;97681.94;;;13.64;78.59
29907;BME280;16776;50.958;10.994;2023-05-10T02:23:59;97681.09;;;13.64;78.21
29907;BME280;16776;50.958;10.994;2023-05-10T02:26:27;97688.97;;;13.62;78.75
29907;BME280;16776;50.958;10.994;2023-05-10T02:28:56;97686.44;;;13.61;78.75
29907;BME280;16776;50.958;10.994;2023-05-10T02:31:23;97684.78;;;13.60;78.86
29907;BME280;16776;50.958;10.994;2023-05-10T02:33:51;97679.59;;;13.60;78.76
29907;BME280;16776;50.958;10.994;2023-05-10T02:36:18;97677.84;;;13.60;79.16
29907;BME280;16776;50.958;10.994;2023-05-10T02:38:47;97677.78;;;13.62;79.20
29907;BME280;16776;50.958;10.994;2023-05-10T02:41:15;97683.09;;;13.59;79.33
29907;BME280;16776;50.958;10.994;2023-05-10T02:43:43;97675.34;;;13.59;79.15
29907;BME280;16776;50.958;10.994;2023-05-10T02:46:10;97673.66;;;13.58;79.14
29907;BME280;16776;50.958;10.994;2023-05-10T02:48:37;97676.25;;;13.58;79.46
29907;BME280;16776;50.958;10.994;2023-05-10T02:51:05;97680.44;;;13.60;79.46
29907;BME280;16776;50.958;10.994;2023-05-10T02:53:34;97675.34;;;13.59;79.18
29907;BME280;16776;50.958;10.994;2023-05-10T02:56:05;97643.00;;;13.50;79.86
29907;BME280;16776;50.958;10.994;2023-05-10T02:58:36;97672.00;;;13.57;80.01
29907;BME280;16776;50.958;10.994;2023-05-10T03:01:03;97674.69;;;13.55;79.90
29907;BME280;16776;50.958;10.994;2023-05-10T03:03:30;97678.16;;;13.54;80.21
29907;BME280;16776;50.958;10.994;2023-05-10T03:05:57;97673.06;;;13.53;80.29
29907;BME280;16776;50.958;10.994;2023-05-10T03:08:24;97670.53;;;13.51;80.31
29907;BME280;16776;50.958;10.994;2023-05-10T03:11:01;97678.09;;;13.56;80.69
29907;BME280;16776;50.958;10.994;2023-05-10T03:13:39;97672.22;;;13.52;80.76
29907;BME280;16776;50.958;10.994;2023-05-10T03:16:15;97670.72;;;13.48;80.33
29907;BME280;16776;50.958;10.994;2023-05-10T03:18:44;97677.91;;;13.43;80.51
29907;BME280;16776;50.958;10.994;2023-05-10T03:21:17;97677.97;;;13.41;81.24
29907;BME280;16776;50.958;10.994;2023-05-10T03:23:50;97672.81;;;13.41;81.15
29907;BME280;16776;50.958;10.994;2023-05-10T03:26:20;97675.53;;;13.38;80.40
29907;BME280;16776;50.958;10.994;2023-05-10T03:28:50;97682.47;;;13.38;81.40
29907;BME280;16776;50.958;10.994;2023-05-10T03:31:18;97670.69;;;13.32;81.56
29907;BME280;16776;50.958;10.994;2023-05-10T03:33:46;97674.88;;;13.35;81.20
29907;BME280;16776;50.958;10.994;2023-05-10T03:36:13;97672.38;;;13.33;81.45
29907;BME280;16776;50.958;10.994;2023-05-10T03:38:40;97675.03;;;13.32;81.89
29907;BME280;16776;50.958;10.994;2023-05-10T03:41:06;97678.63;;;13.29;81.96
29907;BME280;16776;50.958;10.994;2023-05-10T03:43:33;97683.88;;;13.28;82.09
29907;BME280;16776;50.958;10.994;2023-05-10T03:46:02;97682.88;;;13.30;82.87
29907;BME280;16776;50.958;10.994;2023-05-10T03:48:29;97686.72;;;13.23;82.90
29907;BME280;16776;50.958;10.994;2023-05-10T03:50:56;97673.94;;;13.20;83.46
29907;BME280;16776;50.958;10.994;2023-05-10T03:53:22;97675.84;;;13.17;83.27
29907;BME280;16776;50.958;10.994;2023-05-10T03:55:49;97677.81;;;13.12;83.35
29907;BME280;16776;50.958;10.994;2023-05-10T03:58:15;97679.75;;;13.08;84.01
29907;BME280;16776;50.958;10.994;2023-05-10T04:00:43;97682.56;;;13.03;83.81
29907;BME280;16776;50.958;10.994;2023-05-10T04:03:12;97688.66;;;13.02;84.37
29907;BME280;16776;50.958;10.994;2023-05-10T04:05:39;97689.94;;;12.94;84.65
29907;BME280;16776;50.958;10.994;2023-05-10T04:08:06;97700.53;;;12.89;85.21
29907;BME280;16776;50.958;10.994;2023-05-10T04:10:33;97681.47;;;12.75;85.46
29907;BME280;16776;50.958;10.994;2023-05-10T04:12:59;97693.31;;;12.79;85.17
29907;BME280;16776;50.958;10.994;2023-05-10T04:15:26;97697.03;;;12.73;85.44
29907;BME280;16776;50.958;10.994;2023-05-10T04:17:54;97697.34;;;12.67;86.10
29907;BME280;16776;50.958;10.994;2023-05-10T04:20:22;97696.72;;;12.62;86.02
29907;BME280;16776;50.958;10.994;2023-05-10T04:22:48;97697.06;;;12.54;85.99
29907;BME280;16776;50.958;10.994;2023-05-10T04:25:15;97694.78;;;12.48;86.55
29907;BME280;16776;50.958;10.994;2023-05-10T04:27:41;97698.44;;;12.44;86.76
29907;BME280;16776;50.958;10.994;2023-05-10T04:30:08;97697.78;;;12.41;86.79
29907;BME280;16776;50.958;10.994;2023-05-10T04:32:35;97705.78;;;12.35;86.80
29907;BME280;16776;50.958;10.994;2023-05-10T04:35:02;97698.28;;;12.30;86.88
29907;BME280;16776;50.958;10.994;2023-05-10T04:37:31;97705.28;;;12.28;87.83
29907;BME280;16776;50.958;10.994;2023-05-10T04:39:57;97700.25;;;12.25;88.66
29907;BME280;16776;50.958;10.994;2023-05-10T04:42:25;97703.50;;;12.29;88.33
29907;BME280;16776;50.958;10.994;2023-05-10T04:44:53;97693.81;;;12.34;88.36
29907;BME280;16776;50.958;10.994;2023-05-10T04:47:20;97691.97;;;12.36;88.54
29907;BME280;16776;50.958;10.994;2023-05-10T04:49:46;97691.91;;;12.37;88.28
29907;BME280;16776;50.958;10.994;2023-05-10T04:52:13;97689.41;;;12.36;88.76
29907;BME280;16776;50.958;10.994;2023-05-10T04:54:42;97686.81;;;12.36;89.39
29907;BME280;16776;50.958;10.994;2023-05-10T04:57:09;97703.38;;;12.32;89.71
29907;BME280;16776;50.958;10.994;2023-05-10T04:59:35;97693.97;;;12.31;89.59
29907;BME280;16776;50.958;10.994;2023-05-10T05:02:02;97699.13;;;12.31;90.04
29907;BME280;16776;50.958;10.994;2023-05-10T05:04:32;97702.59;;;12.30;90.28
29907;BME280;16776;50.958;10.994;2023-05-10T05:06:58;97703.44;;;12.30;89.72
29907;BME280;16776;50.958;10.994;2023-05-10T05:09:25;97709.44;;;12.31;90.05
29907;BME280;16776;50.958;10.994;2023-05-10T05:11:53;97718.88;;;12.32;90.66
29907;BME280;16776;50.958;10.994;2023-05-10T05:14:19;97712.94;;;12.30;90.59
29907;BME280;16776;50.958;10.994;2023-05-10T05:16:46;97719.94;;;12.28;90.75
29907;BME280;16776;50.958;10.994;2023-05-10T05:19:13;97715.69;;;12.27;90.54
29907;BME280;16776;50.958;10.994;2023-05-10T05:21:39;97714.84;;;12.26;90.96
29907;BME280;16776;50.958;10.994;2023-05-10T05:24:06;97726.06;;;12.25;90.88
29907;BME280;16776;50.958;10.994;2023-05-10T05:26:33;97726.06;;;12.25;90.30
29907;BME280;16776;50.958;10.994;2023-05-10T05:29:01;97728.59;;;12.27;91.57
29907;BME280;16776;50.958;10.994;2023-05-10T05:31:28;97732.19;;;12.22;92.09
29907;BME280;16776;50.958;10.994;2023-05-10T05:33:54;97735.72;;;12.21;92.01
29907;BME280;16776;50.958;10.994;2023-05-10T05:36:21;97743.47;;;12.21;92.58
29907;BME280;16776;50.958;10.994;2023-05-10T05:38:47;97744.22;;;12.23;92.81
29907;BME280;16776;50.958;10.994;2023-05-10T05:41:14;97742.41;;;12.26;92.88
29907;BME280;16776;50.958;10.994;2023-05-10T05:43:40;97740.59;;;12.28;92.67
29907;BME280;16776;50.958;10.994;2023-05-10T05:46:08;97748.03;;;12.34;92.72
29907;BME280;16776;50.958;10.994;2023-05-10T05:48:35;97748.88;;;12.34;93.02
29907;BME280;16776;50.958;10.994;2023-05-10T05:51:02;97749.63;;;12.36;92.67
29907;BME280;16776;50.958;10.994;2023-05-10T05:53:28;97758.06;;;12.40;93.39
29907;BME280;16776;50.958;10.994;2023-05-10T05:55:56;97760.56;;;12.41;93.58
29907;BME280;16776;50.958;10.994;2023-05-10T05:58:23;97756.16;;;12.43;93.59
29907;BME280;16776;50.958;10.994;2023-05-10T06:00:50;97759.47;;;12.47;93.64
29907;BME280;16776;50.958;10.994;2023-05-10T06:03:19;97766.13;;;12.51;94.05
29907;BME280;16776;50.958;10.994;2023-05-10T06:05:46;97776.47;;;12.51;94.25
29907;BME280;16776;50.958;10.994;2023-05-10T06:08:13;97769.50;;;12.53;94.35
29907;BME280;16776;50.958;10.994;2023-05-10T06:10:39;97771.06;;;12.55;94.51
29907;BME280;16776;50.958;10.994;2023-05-10T06:13:06;97767.44;;;12.59;94.89
29907;BME280;16776;50.958;10.994;2023-05-10T06:15:32;97770.75;;;12.63;94.65
29907;BME280;16776;50.958;10.994;2023-05-10T06:17:59;97780.94;;;12.66;95.32
29907;BME280;16776;50.958;10.994;2023-05-10T06:20:27;97790.03;;;12.73;95.64
29907;BME280;16776;50.958;10.994;2023-05-10T06:22:54;97788.22;;;12.75;95.00
29907;BME280;16776;50.958;10.994;2023-05-10T06:25:20;97794.00;;;12.80;95.21
29907;BME280;16776;50.958;10.994;2023-05-10T06:27:47;97798.97;;;12.85;95.13
29907;BME280;16776;50.958;10.994;2023-05-10T06:30:14;97803.88;;;12.89;95.91
29907;BME280;16776;50.958;10.994;2023-05-10T06:32:41;97809.84;;;12.91;95.76
29907;BME280;16776;50.958;10.994;2023-05-10T06:35:09;97804.50;;;12.94;95.97
29907;BME280;16776;50.958;10.994;2023-05-10T06:37:37;97811.94;;;13.00;95.88
29907;BME280;16776;50.958;10.994;2023-05-10T06:40:05;97801.59;;;13.00;96.47
29907;BME280;16776;50.958;10.994;2023-05-10T06:42:31;97810.91;;;13.05;96.33
29907;BME280;16776;50.958;10.994;2023-05-10T06:44:58;97789.75;;;12.96;96.79
29907;BME280;16776;50.958;10.994;2023-05-10T06:47:24;97809.50;;;13.15;97.21
29907;BME280;16776;50.958;10.994;2023-05-10T06:49:51;97815.22;;;13.21;97.36
29907;BME280;16776;50.958;10.994;2023-05-10T06:52:17;97820.91;;;13.28;97.60
29907;BME280;16776;50.958;10.994;2023-05-10T06:54:45;97819.63;;;13.36;97.29
29907;BME280;16776;50.958;10.994;2023-05-10T06:57:12;97823.78;;;13.39;96.91
29907;BME280;16776;50.958;10.994;2023-05-10T06:59:38;97820.97;;;13.43;96.93
29907;BME280;16776;50.958;10.994;2023-05-10T07:02:05;97824.25;;;13.47;96.55
29907;BME280;16776;50.958;10.994;2023-05-10T07:04:32;97830.91;;;13.51;97.25
29907;BME280;16776;50.958;10.994;2023-05-10T07:06:59;97823.81;;;13.56;97.06
29907;BME280;16776;50.958;10.994;2023-05-10T07:09:25;97832.25;;;13.60;97.69
29907;BME280;16776;50.958;10.994;2023-05-10T07:11:54;97831.69;;;13.70;98.06
29907;BME280;16776;50.958;10.994;2023-05-10T07:14:22;97829.84;;;13.72;97.73
29907;BME280;16776;50.958;10.994;2023-05-10T07:16:49;97832.97;;;13.79;97.73
29907;BME280;16776;50.958;10.994;2023-05-10T07:19:15;97832.63;;;13.85;97.61
29907;BME280;16776;50.958;10.994;2023-05-10T07:21:42;97830.56;;;13.92;97.45
29907;BME280;16776;50.958;10.994;2023-05-10T07:24:08;97837.09;;;13.99;97.24
29907;BME280;16776;50.958;10.994;2023-05-10T07:26:35;97841.09;;;14.04;97.43
29907;BME280;16776;50.958;10.994;2023-05-10T07:29:03;97836.59;;;14.08;97.67
29907;BME280;16776;50.958;10.994;2023-05-10T07:31:29;97841.53;;;14.12;98.13
29907;BME280;16776;50.958;10.994;2023-05-10T07:33:56;97842.97;;;14.18;97.81
29907;BME280;16776;50.958;10.994;2023-05-10T07:36:23;97851.22;;;14.25;97.83
29907;BME280;16776;50.958;10.994;2023-05-10T07:38:49;97850.81;;;14.32;97.24
29907;BME280;16776;50.958;10.994;2023-05-10T07:41:16;97851.47;;;14.36;97.75
29907;BME280;16776;50.958;10.994;2023-05-10T07:43:42;97849.47;;;14.41;97.45
29907;BME280;16776;50.958;10.994;2023-05-10T07:46:10;97853.34;;;14.49;98.07
29907;BME280;16776;50.958;10.994;2023-05-10T07:48:37;97849.59;;;14.55;97.96
29907;BME280;16776;50.958;10.994;2023-05-10T07:51:04;97854.28;;;14.64;97.75
29907;BME280;16776;50.958;10.994;2023-05-10T07:53:31;97852.91;;;14.73;97.67
29907;BME280;16776;50.958;10.994;2023-05-10T07:55:58;97855.91;;;14.81;97.71
29907;BME280;16776;50.958;10.994;2023-05-10T07:58:25;97854.66;;;14.88;97.61
29907;BME280;16776;50.958;10.994;2023-05-10T08:00:54;97849.94;;;14.94;97.98
29907;BME280;16776;50.958;10.994;2023-05-10T08:03:23;97853.78;;;15.03;97.20
29907;BME280;16776;50.958;10.994;2023-05-10T08:05:49;97867.50;;;15.05;97.01
29907;BME280;16776;50.958;10.994;2023-05-10T08:08:16;97872.59;;;15.07;96.82
29907;BME280;16776;50.958;10.994;2023-05-10T08:10:43;97874.34;;;15.06;96.94
29907;BME280;16776;50.958;10.994;2023-05-10T08:13:09;97872.66;;;15.05;96.42
29907;BME280;16776;50.958;10.994;2023-05-10T08:15:36;97869.34;;;15.03;96.59
29907;BME280;16776;50.958;10.994;2023-05-10T08:18:03;97878.06;;;15.02;96.00
29907;BME280;16776;50.958;10.994;2023-05-10T08:20:31;97877.13;;;15.03;96.62
29907;BME280;16776;50.958;10.994;2023-05-10T08:22:58;97874.69;;;15.00;96.70
29907;BME280;16776;50.958;10.994;2023-05-10T08:25:24;97879.88;;;15.00;96.33
29907;BME280;16776;50.958;10.994;2023-05-10T08:27:51;97885.06;;;15.00;96.66
29907;BME280;16776;50.958;10.994;2023-05-10T08:30:17;97886.66;;;15.02;96.66
29907;BME280;16776;50.958;10.994;2023-05-10T08:32:44;97888.22;;;15.05;96.69
29907;BME280;16776;50.958;10.994;2023-05-10T08:35:10;97891.66;;;15.06;96.78
29907;BME280;16776;50.958;10.994;2023-05-10T08:37:38;97892.34;;;15.09;97.03
29907;BME280;16776;50.958;10.994;2023-05-10T08:40:06;97897.41;;;15.11;97.18
29907;BME280;16776;50.958;10.994;2023-05-10T08:42:36;97898.84;;;15.16;96.64
29907;BME280;16776;50.958;10.994;2023-05-10T08:45:07;97893.56;;;15.18;96.90
29907;BME280;16776;50.958;10.994;2023-05-10T08:47:35;97899.41;;;15.21;96.55
29907;BME280;16776;50.958;10.994;2023-05-10T08:50:04;97897.56;;;15.23;96.29
29907;BME280;16776;50.958;10.994;2023-05-10T08:52:32;97909.44;;;15.27;96.45
29907;BME280;16776;50.958;10.994;2023-05-10T08:55:00;97906.66;;;15.30;96.63
29907;BME280;16776;50.958;10.994;2023-05-10T08:57:27;97899.72;;;15.31;97.15
29907;BME280;16776;50.958;10.994;2023-05-10T08:59:56;97913.97;;;15.39;96.87
29907;BME280;16776;50.958;10.994;2023-05-10T09:02:23;97913.75;;;15.42;96.79
29907;BME280;16776;50.958;10.994;2023-05-10T09:04:50;97922.03;;;15.49;96.87
29907;BME280;16776;50.958;10.994;2023-05-10T09:07:16;97923.47;;;15.55;96.82
29907;BME280;16776;50.958;10.994;2023-05-10T09:09:43;97925.69;;;15.61;96.49
29907;BME280;16776;50.958;10.994;2023-05-10T09:12:13;97926.25;;;15.66;96.63
29907;BME280;16776;50.958;10.994;2023-05-10T09:14:41;97925.91;;;15.72;96.55
29907;BME280;16776;50.958;10.994;2023-05-10T09:17:09;97926.28;;;15.80;96.48
29907;BME280;16776;50.958;10.994;2023-05-10T09:19:35;97935.56;;;15.84;96.25
29907;BME280;16776;50.958;10.994;2023-05-10T09:22:02;97926.66;;;15.88;95.95
29907;BME280;16776;50.958;10.994;2023-05-10T09:24:30;97936.69;;;15.94;96.55
29907;BME280;16776;50.958;10.994;2023-05-10T09:26:57;97934.66;;;15.99;96.57
29907;BME280;16776;50.958;10.994;2023-05-10T09:29:25;97939.50;;;16.05;96.60
29907;BME280;16776;50.958;10.994;2023-05-10T09:31:52;97947.84;;;16.10;96.42
29907;BME280;16776;50.958;10.994;2023-05-10T09:34:22;97951.06;;;16.14;96.24
29907;BME280;16776;50.958;10.994;2023-05-10T09:36:55;97951.16;;;16.12;96.38
29907;BME280;16776;50.958;10.994;2023-05-10T09:39:30;97964.41;;;16.24;96.40
29907;BME280;16776;50.958;10.994;2023-05-10T09:41:57;97970.88;;;16.16;96.22
29907;BME280;16776;50.958;10.994;2023-05-10T09:44:26;97976.13;;;16.15;96.11
29907;BME280;16776;50.958;10.994;2023-05-10T09:46:53;97984.28;;;16.09;96.83
29907;BME280;16776;50.958;10.994;2023-05-10T09:49:20;97982.91;;;16.03;96.63
29907;BME280;16776;50.958;10.994;2023-05-10T09:51:48;97982.34;;;15.98;96.79
29907;BME280;16776;50.958;10.994;2023-05-10T09:54:25;97993.09;;;15.92;96.77
29907;BME280;16776;50.958;10.994;2023-05-10T09:56:52;97984.69;;;15.87;97.04
29907;BME280;16776;50.958;10.994;2023-05-10T09:59:18;97986.66;;;15.84;97.07
29907;BME280;16776;50.958;10.994;2023-05-10T10:01:51;97985.66;;;15.86;97.49
29907;BME280;16776;50.958;10.994;2023-05-10T10:04:19;97985.91;;;15.81;97.55
29907;BME280;16776;50.958;10.994;2023-05-10T10:06:46;97985.25;;;15.78;97.84
29907;BME280;16776;50.958;10.994;2023-05-10T10:09:24;97980.81;;;15.80;98.28
29907;BME280;16776;50.958;10.994;2023-05-10T10:11:51;97979.69;;;15.84;98.25
29907;BME280;16776;50.958;10.994;2023-05-10T10:14:18;97974.22;;;15.89;98.38
29907;BME280;16776;50.958;10.994;2023-05-10T10:16:45;97979.16;;;15.93;97.81
29907;BME280;16776;50.958;10.994;2023-05-10T10:19:13;97978.69;;;16.01;97.89
29907;BME280;16776;50.958;10.994;2023-05-10T10:21:41;97984.56;;;16.04;98.27
29907;BME280;16776;50.958;10.994;2023-05-10T10:24:07;97979.00;;;16.10;98.23
29907;BME280;16776;50.958;10.994;2023-05-10T10:26:34;97980.22;;;16.19;98.27
29907;BME280;16776;50.958;10.994;2023-05-10T10:29:12;97983.06;;;16.30;97.93
29907;BME280;16776;50.958;10.994;2023-05-10T10:31:46;97977.56;;;16.35;97.81
29907;BME280;16776;50.958;10.994;2023-05-10T10:34:20;97975.34;;;16.43;97.06
29907;BME280;16776;50.958;10.994;2023-05-10T10:36:50;97977.28;;;16.39;97.85
29907;BME280;16776;50.958;10.994;2023-05-10T10:39:18;97975.81;;;16.49;97.51
29907;BME280;16776;50.958;10.994;2023-05-10T10:41:49;97979.50;;;16.59;97.36
29907;BME280;16776;50.958;10.994;2023-05-10T10:44:33;97980.72;;;16.68;96.95
29907;BME280;16776;50.958;10.994;2023-05-10T10:47:02;97987.22;;;16.61;97.13
29907;BME280;16776;50.958;10.994;2023-05-10T10:49:32;97981.81;;;16.64;97.14
29907;BME280;16776;50.958;10.994;2023-05-10T10:52:21;97992.41;;;16.75;97.19
29907;BME280;16776;50.958;10.994;2023-05-10T10:54:51;97988.59;;;16.67;97.04
29907;BME280;16776;50.958;10.994;2023-05-10T10:57:19;97988.88;;;16.62;97.30
29907;BME280;16776;50.958;10.994;2023-05-10T10:59:47;97995.00;;;16.61;96.56
29907;BME280;16776;50.958;10.994;2023-05-10T11:02:36;97996.31;;;16.68;96.69
29907;BME280;16776;50.958;10.994;2023-05-10T11:05:35;97995.00;;;16.61;97.01
29907;BME280;16776;50.958;10.994;2023-05-10T11:08:07;97992.88;;;16.53;95.64
29907;BME280;16776;50.958;10.994;2023-05-10T11:10:34;97994.09;;;16.34;96.65
29907;BME280;16776;50.958;10.994;2023-05-10T11:13:01;97998.72;;;16.29;96.52
29907;BME280;16776;50.958;10.994;2023-05-10T11:15:31;97996.22;;;16.27;96.85
29907;BME280;16776;50.958;10.994;2023-05-10T11:17:58;97999.47;;;16.16;97.05
29907;BME280;16776;50.958;10.994;2023-05-10T11:20:27;98009.00;;;16.16;96.99
29907;BME280;16776;50.958;10.994;2023-05-10T11:23:11;98011.59;;;16.16;97.22
29907;BME280;16776;50.958;10.994;2023-05-10T11:25:41;98005.50;;;16.01;97.28
29907;BME280;16776;50.958;10.994;2023-05-10T11:28:09;98000.97;;;15.91;97.31
29907;BME280;16776;50.958;10.994;2023-05-10T11:30:36;98007.72;;;15.93;97.53
29907;BME280;16776;50.958;10.994;2023-05-10T11:33:02;98007.81;;;15.92;97.70
29907;BME280;16776;50.958;10.994;2023-05-10T11:35:29;98014.03;;;15.89;97.80
29907;BME280;16776;50.958;10.994;2023-05-10T11:37:55;98009.88;;;15.87;97.72
29907;BME280;16776;50.958;10.994;2023-05-10T11:40:23;98012.53;;;15.85;97.67
29907;BME280;16776;50.958;10.994;2023-05-10T11:42:51;98011.03;;;15.81;97.92
29907;BME280;16776;50.958;10.994;2023-05-10T11:45:18;98007.78;;;15.77;98.19
29907;BME280;16776;50.958;10.994;2023-05-10T11:47:44;98012.22;;;15.75;98.35
29907;BME280;16776;50.958;10.994;2023-05-10T11:50:14;98019.16;;;15.75;98.78
29907;BME280;16776;50.958;10.994;2023-05-10T11:52:41;98022.78;;;15.72;98.61
29907;BME280;16776;50.958;10.994;2023-05-10T11:55:08;98028.81;;;15.73;98.73
29907;BME280;16776;50.958;10.994;2023-05-10T11:57:35;98030.38;;;15.75;98.72
29907;BME280;16776;50.958;10.994;2023-05-10T12:00:04;98035.59;;;15.75;99.31
29907;BME280;16776;50.958;10.994;2023-05-10T12:02:31;98028.56;;;15.77;99.17
29907;BME280;16776;50.958;10.994;2023-05-10T12:04:58;98025.69;;;15.82;99.01
29907;BME280;16776;50.958;10.994;2023-05-10T12:07:25;98037.38;;;15.89;99.24
29907;BME280;16776;50.958;10.994;2023-05-10T12:10:06;98029.72;;;16.02;99.24
29907;BME280;16776;50.958;10.994;2023-05-10T12:12:38;98033.09;;;16.04;99.80
29907;BME280;16776;50.958;10.994;2023-05-10T12:15:10;98031.03;;;16.09;99.71
29907;BME280;16776;50.958;10.994;2023-05-10T12:17:38;98034.28;;;16.12;99.52
29907;BME280;16776;50.958;10.994;2023-05-10T12:20:18;98015.69;;;16.20;99.53
29907;BME280;16776;50.958;10.994;2023-05-10T12:22:50;98031.38;;;16.33;99.35
29907;BME280;16776;50.958;10.994;2023-05-10T12:25:17;98030.28;;;16.37;99.42
29907;BME280;16776;50.958;10.994;2023-05-10T12:27:50;98027.50;;;16.54;99.59
29907;BME280;16776;50.958;10.994;2023-05-10T12:30:21;98032.03;;;16.65;98.83
29907;BME280;16776;50.958;10.994;2023-05-10T12:32:48;98030.03;;;16.70;98.96
29907;BME280;16776;50.958;10.994;2023-05-10T12:35:14;98030.19;;;16.81;98.50
29907;BME280;16776;50.958;10.994;2023-05-10T12:37:42;98035.78;;;16.89;98.70
29907;BME280;16776;50.958;10.994;2023-05-10T12:40:13;98035.31;;;16.96;98.64
29907;BME280;16776;50.958;10.994;2023-05-10T12:42:42;98040.03;;;17.04;97.86
29907;BME280;16776;50.958;10.994;2023-05-10T12:45:11;98033.06;;;17.05;97.73
29907;BME280;16776;50.958;10.994;2023-05-10T12:47:38;98036.97;;;17.12;97.83
29907;BME280;16776;50.958;10.994;2023-05-10T12:50:05;98034.91;;;17.17;98.25
29907;BME280;16776;50.958;10.994;2023-05-10T12:52:32;98040.84;;;17.19;97.94
29907;BME280;16776;50.958;10.994;2023-05-10T12:54:59;98020.34;;;17.14;97.70
29907;BME280;16776;50.958;10.994;2023-05-10T12:57:26;98041.22;;;17.27;97.46